createdAt,value
2022-10-07T00:01:06.844Z,15.30
2022-10-07T00:03:35.080Z,15.36
2022-10-07T00:06:05.218Z,15.37
2022-10-07T00:08:33.521Z,15.34
2022-10-07T00:11:06.082Z,15.37
2022-10-07T00:13:36.484Z,15.35
2022-10-07T00:16:07.477Z,15.27
2022-10-07T00:18:36.130Z,15.25
2022-10-07T00:21:05.629Z,15.31
2022-10-07T00:23:33.599Z,15.10
2022-10-07T00:26:02.507Z,15.09
2022-10-07T00:28:30.849Z,15.19
2022-10-07T00:30:59.502Z,15.18
2022-10-07T00:33:32.099Z,15.26
2022-10-07T00:35:59.961Z,15.32
2022-10-07T00:38:27.843Z,15.44
2022-10-07T00:40:55.607Z,15.34
2022-10-07T00:43:26.292Z,15.27
2022-10-07T00:45:57.515Z,15.33
2022-10-07T00:48:36.131Z,15.32
2022-10-07T00:51:04.532Z,15.41
2022-10-07T00:53:37.081Z,15.42
2022-10-07T00:56:06.874Z,15.37
2022-10-07T00:58:36.701Z,15.35
2022-10-07T01:01:08.091Z,15.29
2022-10-07T01:03:38.072Z,15.21
2022-10-07T01:06:06.724Z,15.19
2022-10-07T01:08:34.859Z,15.29
2022-10-07T01:11:14.776Z,15.30
2022-10-07T01:13:55.557Z,15.25
2022-10-07T01:16:30.631Z,15.16
2022-10-07T01:19:10.950Z,15.11
2022-10-07T01:21:47.104Z,15.10
2022-10-07T01:24:28.143Z,15.16
2022-10-07T01:27:04.928Z,15.16
2022-10-07T01:29:39.178Z,15.22
2022-10-07T01:32:13.994Z,15.17
2022-10-07T01:34:44.148Z,15.15
2022-10-07T01:37:17.180Z,15.18
2022-10-07T01:39:48.807Z,15.21
2022-10-07T01:42:18.519Z,15.12
2022-10-07T01:44:49.454Z,15.11
2022-10-07T01:47:18.105Z,15.07
2022-10-07T01:49:46.482Z,15.05
2022-10-07T01:52:36.207Z,14.99
2022-10-07T01:55:20.232Z,14.85
2022-10-07T01:57:57.768Z,14.70
2022-10-07T02:00:28.191Z,14.61
2022-10-07T02:03:12.245Z,14.56
2022-10-07T02:05:52.638Z,14.40
2022-10-07T02:08:34.796Z,14.29
2022-10-07T02:11:13.925Z,14.15
2022-10-07T02:13:57.871Z,14.16
2022-10-07T02:16:32.635Z,14.18
2022-10-07T02:19:05.518Z,14.08
2022-10-07T02:21:35.811Z,14.05
2022-10-07T02:24:05.335Z,14.02
2022-10-07T02:26:35.066Z,13.84
2022-10-07T02:29:07.931Z,13.72
2022-10-07T02:31:38.635Z,13.71
2022-10-07T02:34:08.783Z,13.64
2022-10-07T02:36:41.829Z,13.61
2022-10-07T02:39:09.828Z,13.63
2022-10-07T02:41:45.644Z,13.57
2022-10-07T02:44:26.778Z,13.53
2022-10-07T02:47:02.629Z,13.45
2022-10-07T02:49:32.201Z,13.41
2022-10-07T02:52:05.319Z,13.30
2022-10-07T02:54:42.692Z,13.20
2022-10-07T02:57:13.961Z,13.18
2022-10-07T02:59:45.221Z,13.14
2022-10-07T03:02:17.883Z,13.23
2022-10-07T03:04:46.163Z,13.27
2022-10-07T03:07:14.080Z,13.18
2022-10-07T03:09:42.813Z,13.25
2022-10-07T03:12:12.551Z,13.22
2022-10-07T03:14:41.111Z,13.20
2022-10-07T03:17:11.324Z,13.09
2022-10-07T03:19:39.096Z,13.01
2022-10-07T03:22:07.017Z,12.94
2022-10-07T03:24:37.681Z,12.97
2022-10-07T03:27:08.949Z,13.07
2022-10-07T03:29:41.940Z,13.08
2022-10-07T03:32:11.500Z,13.03
2022-10-07T03:34:39.357Z,12.98
2022-10-07T03:37:07.877Z,13.01
2022-10-07T03:39:35.716Z,12.94
2022-10-07T03:42:03.494Z,12.86
2022-10-07T03:44:32.070Z,12.76
2022-10-07T03:47:00.412Z,12.63
2022-10-07T03:49:30.162Z,12.52
2022-10-07T03:51:59.370Z,12.30
2022-10-07T03:54:28.429Z,12.16
2022-10-07T03:56:56.209Z,12.08
2022-10-07T03:59:24.001Z,12.14
2022-10-07T04:01:51.764Z,12.34
2022-10-07T04:04:20.619Z,12.41
2022-10-07T04:06:50.395Z,12.42
2022-10-07T04:09:18.228Z,12.32
2022-10-07T04:11:45.980Z,12.11
2022-10-07T04:14:13.886Z,12.00
2022-10-07T04:16:42.694Z,12.04
2022-10-07T04:19:13.693Z,11.95
2022-10-07T04:21:42.786Z,12.11
2022-10-07T04:24:12.133Z,12.19
2022-10-07T04:26:39.897Z,12.27
2022-10-07T04:29:07.797Z,12.17
2022-10-07T04:31:37.388Z,12.13
2022-10-07T04:34:06.787Z,12.14
2022-10-07T04:36:39.027Z,11.98
2022-10-07T04:39:16.909Z,11.75
2022-10-07T04:41:54.674Z,11.58
2022-10-07T04:44:26.620Z,11.76
2022-10-07T04:47:00.166Z,11.83
2022-10-07T04:49:30.663Z,11.77
2022-10-07T04:52:00.558Z,11.59
2022-10-07T04:54:34.328Z,11.70
2022-10-07T04:57:02.254Z,11.99
2022-10-07T04:59:30.729Z,12.08
2022-10-07T05:01:59.688Z,12.16
2022-10-07T05:04:29.908Z,11.98
2022-10-07T05:06:59.409Z,12.07
2022-10-07T05:09:27.527Z,12.13
2022-10-07T05:11:56.724Z,12.18
2022-10-07T05:14:24.709Z,12.01
2022-10-07T05:16:54.020Z,12.08
2022-10-07T05:19:25.864Z,11.96
2022-10-07T05:21:54.662Z,11.95
2022-10-07T05:24:22.677Z,11.92
2022-10-07T05:26:51.680Z,11.78
2022-10-07T05:29:20.838Z,11.72
2022-10-07T05:31:52.388Z,11.99
2022-10-07T05:34:23.777Z,12.30
2022-10-07T05:36:53.217Z,12.26
2022-10-07T05:39:24.797Z,11.64
2022-10-07T05:42:01.841Z,11.18
2022-10-07T05:44:38.221Z,10.97
2022-10-07T05:47:10.009Z,11.37
2022-10-07T05:49:37.857Z,11.47
2022-10-07T05:52:07.707Z,11.64
2022-10-07T05:54:35.904Z,11.59
2022-10-07T05:57:04.373Z,12.00
2022-10-07T05:59:32.533Z,12.04
2022-10-07T06:02:04.580Z,12.00
2022-10-07T06:04:33.761Z,12.21
2022-10-07T06:07:04.188Z,12.37
2022-10-07T06:09:49.792Z,12.34
2022-10-07T06:12:36.288Z,12.46
2022-10-07T06:15:10.699Z,12.67
2022-10-07T06:17:46.512Z,12.55
2022-10-07T06:20:18.083Z,12.48
2022-10-07T06:22:47.056Z,12.32
2022-10-07T06:25:16.644Z,11.92
2022-10-07T06:27:49.724Z,12.24
2022-10-07T06:30:21.032Z,12.39
2022-10-07T06:32:51.105Z,12.39
2022-10-07T06:35:19.367Z,12.34
2022-10-07T06:37:48.827Z,12.46
2022-10-07T06:40:17.237Z,12.60
2022-10-07T06:42:45.263Z,12.43
2022-10-07T06:45:39.754Z,12.41
2022-10-07T06:48:09.370Z,12.76
2022-10-07T06:50:40.326Z,12.81
2022-10-07T06:53:08.241Z,12.98
2022-10-07T06:55:38.058Z,13.03
2022-10-07T06:58:11.398Z,13.20
2022-10-07T07:00:41.026Z,13.19
2022-10-07T07:03:12.248Z,13.04
2022-10-07T07:05:44.613Z,12.99
2022-10-07T07:08:17.309Z,12.95
2022-10-07T07:10:46.316Z,13.15
2022-10-07T07:13:14.449Z,13.14
2022-10-07T07:15:57.854Z,13.37
2022-10-07T07:18:28.152Z,13.95
2022-10-07T07:20:56.112Z,14.22
2022-10-07T07:23:24.599Z,13.95
2022-10-07T07:25:52.995Z,13.99
2022-10-07T07:28:22.746Z,14.06
2022-10-07T07:30:50.945Z,13.62
2022-10-07T07:33:18.863Z,13.66
2022-10-07T07:35:48.017Z,13.86
2022-10-07T07:38:15.879Z,13.73
2022-10-07T07:40:44.789Z,13.69
2022-10-07T07:43:13.833Z,13.80
2022-10-07T07:45:41.914Z,14.09
2022-10-07T07:48:10.365Z,14.26
2022-10-07T07:50:41.087Z,14.34
2022-10-07T07:53:10.669Z,14.37
2022-10-07T07:55:38.671Z,14.08
2022-10-07T07:58:11.692Z,14.12
2022-10-07T08:00:40.403Z,14.04
2022-10-07T08:03:08.551Z,14.20
2022-10-07T08:05:36.406Z,14.33
2022-10-07T08:08:05.019Z,14.18
2022-10-07T08:10:34.457Z,14.51
2022-10-07T08:13:02.289Z,14.73
2022-10-07T08:15:30.529Z,14.57
2022-10-07T08:17:58.945Z,14.64
2022-10-07T08:20:26.745Z,14.70
2022-10-07T08:22:58.935Z,14.60
2022-10-07T08:25:29.526Z,14.36
2022-10-07T08:28:01.307Z,14.43
2022-10-07T08:30:29.679Z,14.40
2022-10-07T08:33:01.167Z,14.39
2022-10-07T08:35:29.448Z,14.45
2022-10-07T08:37:57.237Z,14.31
2022-10-07T08:40:25.179Z,14.45
2022-10-07T08:42:54.187Z,14.45
2022-10-07T08:45:32.441Z,13.85
2022-10-07T08:48:04.797Z,14.36
2022-10-07T08:50:49.056Z,14.59
2022-10-07T08:53:21.045Z,14.94
2022-10-07T08:55:53.872Z,15.25
2022-10-07T08:58:43.274Z,15.24
2022-10-07T09:01:31.023Z,14.83
2022-10-07T09:04:10.524Z,14.72
2022-10-07T09:06:42.312Z,14.50
2022-10-07T09:09:17.017Z,14.30
2022-10-07T09:11:48.606Z,14.22
2022-10-07T09:14:26.320Z,14.36
2022-10-07T09:16:59.932Z,14.40
2022-10-07T09:19:39.550Z,14.43
2022-10-07T09:22:13.056Z,14.59
2022-10-07T09:24:40.981Z,14.46
2022-10-07T09:27:14.595Z,14.16
2022-10-07T09:29:42.669Z,14.38
2022-10-07T09:32:13.965Z,14.47
2022-10-07T09:34:42.528Z,14.50
2022-10-07T09:37:16.310Z,14.59
2022-10-07T09:39:45.921Z,14.81
2022-10-07T09:42:35.048Z,15.06
2022-10-07T09:45:07.142Z,15.23
2022-10-07T09:47:40.446Z,15.02
2022-10-07T09:50:34.513Z,15.39
2022-10-07T09:53:03.027Z,15.51
2022-10-07T09:55:37.648Z,15.77
2022-10-07T09:58:07.235Z,15.56
2022-10-07T10:00:43.858Z,15.25
2022-10-07T10:03:14.142Z,15.15
2022-10-07T10:05:53.673Z,15.39
2022-10-07T10:08:26.650Z,15.61
2022-10-07T10:10:56.720Z,15.56
2022-10-07T10:13:28.115Z,15.55
2022-10-07T10:15:57.166Z,15.47
2022-10-07T10:18:34.636Z,15.33
2022-10-07T10:21:27.423Z,15.48
2022-10-07T10:23:57.974Z,15.60
2022-10-07T10:26:56.064Z,15.83
2022-10-07T10:29:34.561Z,16.05
2022-10-07T10:32:22.953Z,16.12
2022-10-07T10:34:59.838Z,16.08
2022-10-07T10:37:50.715Z,16.25
2022-10-07T10:40:27.045Z,16.33
2022-10-07T10:43:02.435Z,16.27
2022-10-07T10:45:36.727Z,16.17
2022-10-07T10:48:24.314Z,16.38
2022-10-07T10:51:01.171Z,16.30
2022-10-07T10:53:39.489Z,16.62
2022-10-07T10:56:20.926Z,16.81
2022-10-07T10:59:01.929Z,16.74
2022-10-07T11:01:36.587Z,16.29
2022-10-07T11:04:22.159Z,16.39
2022-10-07T11:06:56.268Z,16.55
2022-10-07T11:09:32.260Z,16.49
2022-10-07T11:12:04.952Z,16.56
2022-10-07T11:14:37.813Z,16.56
2022-10-07T11:17:08.631Z,16.67
2022-10-07T11:19:41.336Z,16.80
2022-10-07T11:22:16.275Z,16.79
2022-10-07T11:24:47.386Z,17.22
2022-10-07T11:27:20.115Z,17.28
2022-10-07T11:29:53.477Z,17.66
2022-10-07T11:32:29.181Z,17.95
2022-10-07T11:35:04.829Z,17.88
2022-10-07T11:37:39.457Z,18.18
2022-10-07T11:40:09.680Z,17.75
2022-10-07T11:42:43.060Z,17.85
2022-10-07T11:45:17.721Z,17.59
2022-10-07T11:47:49.861Z,17.88
2022-10-07T11:50:21.338Z,17.42
2022-10-07T11:52:53.790Z,17.93
2022-10-07T11:55:26.035Z,17.91
2022-10-07T11:57:56.725Z,18.42
2022-10-07T12:00:27.360Z,18.75
2022-10-07T12:02:56.240Z,18.42
2022-10-07T12:06:03.735Z,18.23
2022-10-07T12:08:35.558Z,18.80
2022-10-07T12:11:42.028Z,18.72
2022-10-07T12:14:32.233Z,18.52
2022-10-07T12:17:11.940Z,18.07
2022-10-07T12:19:39.716Z,17.70
2022-10-07T12:22:18.925Z,17.50
2022-10-07T12:25:28.164Z,17.61
2022-10-07T12:27:57.084Z,17.75
2022-10-07T12:30:49.973Z,18.03
2022-10-07T12:33:28.918Z,18.48
2022-10-07T12:35:56.758Z,18.44
2022-10-07T12:38:27.130Z,18.25
2022-10-07T12:41:18.005Z,18.08
2022-10-07T12:43:51.462Z,18.11
2022-10-07T12:46:22.026Z,17.52
2022-10-07T12:48:58.190Z,17.58
2022-10-07T12:51:29.633Z,17.46
2022-10-07T12:54:00.340Z,18.19
2022-10-07T12:56:31.294Z,18.94
2022-10-07T12:59:50.334Z,19.64
2022-10-07T13:02:50.199Z,19.17
2022-10-07T13:05:56.067Z,19.04
2022-10-07T13:09:02.855Z,18.94
2022-10-07T13:12:06.754Z,19.31
2022-10-07T13:14:42.079Z,18.84
2022-10-07T13:17:24.980Z,19.12
2022-10-07T13:20:02.849Z,19.22
2022-10-07T13:22:31.773Z,19.13
2022-10-07T13:25:02.357Z,19.20
2022-10-07T13:27:34.505Z,19.32
2022-10-07T13:30:04.736Z,19.32
2022-10-07T13:32:34.372Z,19.19
2022-10-07T13:35:29.631Z,19.25
2022-10-07T13:37:57.531Z,19.29
2022-10-07T13:40:28.435Z,19.24
2022-10-07T13:43:00.497Z,18.81
2022-10-07T13:45:28.839Z,18.64
2022-10-07T13:47:57.626Z,18.97
2022-10-07T13:50:29.118Z,19.17
2022-10-07T13:52:58.481Z,19.36
2022-10-07T13:55:29.412Z,19.48
2022-10-07T13:58:01.887Z,19.53
2022-10-07T14:00:30.799Z,19.58
2022-10-07T14:02:58.867Z,19.56
2022-10-07T14:05:29.294Z,19.47
2022-10-07T14:07:59.377Z,19.38
2022-10-07T14:10:32.202Z,19.35
2022-10-07T14:13:04.193Z,19.44
2022-10-07T14:15:38.072Z,19.73
2022-10-07T14:18:09.714Z,19.90
2022-10-07T14:20:40.654Z,19.94
2022-10-07T14:23:18.175Z,20.23
2022-10-07T14:25:54.173Z,20.32
2022-10-07T14:28:30.202Z,20.67
2022-10-07T14:31:39.305Z,20.67
2022-10-07T14:34:31.783Z,21.00
2022-10-07T14:37:04.567Z,21.32
2022-10-07T14:39:35.359Z,20.89
2022-10-07T14:42:03.607Z,20.68
2022-10-07T14:44:33.322Z,20.60
2022-10-07T14:47:06.769Z,20.58
2022-10-07T14:49:34.509Z,20.49
2022-10-07T14:52:03.736Z,20.24
2022-10-07T14:54:32.025Z,20.11
2022-10-07T14:56:59.805Z,19.93
2022-10-07T14:59:30.087Z,19.90
2022-10-07T15:01:59.230Z,19.58
2022-10-07T15:04:27.986Z,19.42
2022-10-07T15:06:55.874Z,19.40
2022-10-07T15:09:23.676Z,19.34
2022-10-07T15:11:51.571Z,19.36
2022-10-07T15:14:19.383Z,19.26
2022-10-07T15:16:47.214Z,18.87
2022-10-07T15:19:16.439Z,18.68
2022-10-07T15:21:44.394Z,18.73
2022-10-07T15:24:20.309Z,18.71
2022-10-07T15:26:48.147Z,18.49
2022-10-07T15:29:16.877Z,18.24
2022-10-07T15:31:44.651Z,18.17
2022-10-07T15:34:13.953Z,18.05
2022-10-07T15:36:43.333Z,17.95
2022-10-07T15:39:11.568Z,17.85
2022-10-07T15:41:41.511Z,17.82
2022-10-07T15:44:16.217Z,17.86
2022-10-07T15:46:44.452Z,17.71
2022-10-07T15:49:12.378Z,17.73
2022-10-07T15:51:40.841Z,17.61
2022-10-07T15:54:11.599Z,17.56
2022-10-07T15:56:39.460Z,17.48
2022-10-07T15:59:07.363Z,17.41
2022-10-07T16:01:35.358Z,17.30
2022-10-07T16:04:04.145Z,17.16
2022-10-07T16:06:33.829Z,16.99
2022-10-07T16:09:02.499Z,16.86
2022-10-07T16:11:33.999Z,16.74
2022-10-07T16:14:02.911Z,16.49
2022-10-07T16:16:32.710Z,16.34
2022-10-07T16:19:01.886Z,16.22
2022-10-07T16:21:31.624Z,16.11
2022-10-07T16:24:02.164Z,16.02
2022-10-07T16:26:33.784Z,15.91
2022-10-07T16:29:20.826Z,15.76
2022-10-07T16:31:54.537Z,15.68
2022-10-07T16:34:25.570Z,15.61
2022-10-07T16:36:53.454Z,15.57
2022-10-07T16:39:21.990Z,15.49
2022-10-07T16:41:52.417Z,15.40
2022-10-07T16:44:21.048Z,15.35
2022-10-07T16:46:49.299Z,15.33
2022-10-07T16:49:18.961Z,15.23
2022-10-07T16:51:46.995Z,15.14
2022-10-07T16:54:16.496Z,15.00
2022-10-07T16:56:46.879Z,14.90
2022-10-07T16:59:22.650Z,14.88
2022-10-07T17:01:52.006Z,14.86
2022-10-07T17:04:20.133Z,14.89
2022-10-07T17:06:48.434Z,14.84
2022-10-07T17:09:17.820Z,14.83
2022-10-07T17:11:46.512Z,14.81
2022-10-07T17:14:17.300Z,14.73
2022-10-07T17:16:46.818Z,14.58
2022-10-07T17:19:17.454Z,14.41
2022-10-07T17:21:47.889Z,14.31
2022-10-07T17:24:17.287Z,14.29
2022-10-07T17:26:45.843Z,14.15
2022-10-07T17:29:18.081Z,14.08
2022-10-07T17:31:48.297Z,14.06
2022-10-07T17:34:17.024Z,14.03
2022-10-07T17:36:44.848Z,13.85
2022-10-07T17:39:13.184Z,13.86
2022-10-07T17:41:41.248Z,13.91
2022-10-07T17:44:12.125Z,13.93
2022-10-07T17:46:42.495Z,13.85
2022-10-07T17:49:16.215Z,13.81
2022-10-07T17:51:44.271Z,13.78
2022-10-07T17:54:14.148Z,13.78
2022-10-07T17:56:47.561Z,13.65
2022-10-07T17:59:15.919Z,13.70
2022-10-07T18:01:45.459Z,13.64
2022-10-07T18:04:17.965Z,13.57
2022-10-07T18:06:49.066Z,13.47
2022-10-07T18:09:19.445Z,13.32
2022-10-07T18:12:05.277Z,13.24
2022-10-07T18:14:53.737Z,13.25
2022-10-07T18:17:24.737Z,13.31
2022-10-07T18:19:53.200Z,13.24
2022-10-07T18:22:21.330Z,13.10
2022-10-07T18:24:49.882Z,12.89
2022-10-07T18:27:18.015Z,12.80
2022-10-07T18:29:46.013Z,12.71
2022-10-07T18:32:13.975Z,12.61
2022-10-07T18:34:43.341Z,12.46
2022-10-07T18:37:11.376Z,12.47
2022-10-07T18:39:41.122Z,12.53
2022-10-07T18:42:09.196Z,12.51
2022-10-07T18:44:37.093Z,12.45
2022-10-07T18:47:05.183Z,12.38
2022-10-07T18:49:33.266Z,12.33
2022-10-07T18:52:02.612Z,12.27
2022-10-07T18:54:30.895Z,12.30
2022-10-07T18:56:58.997Z,12.29
2022-10-07T18:59:26.996Z,12.23
2022-10-07T19:01:55.083Z,12.26
2022-10-07T19:04:23.138Z,12.20
2022-10-07T19:06:51.030Z,12.14
2022-10-07T19:09:22.639Z,12.09
2022-10-07T19:11:51.000Z,12.05
2022-10-07T19:14:17.999Z,12.01
2022-10-07T19:16:49.066Z,11.92
2022-10-07T19:19:19.998Z,12.03
2022-10-07T19:21:50.591Z,12.05
2022-10-07T19:24:20.451Z,12.11
2022-10-07T19:26:51.459Z,12.07
2022-10-07T19:29:19.624Z,12.08
2022-10-07T19:31:50.006Z,12.07
2022-10-07T19:34:21.075Z,12.04
2022-10-07T19:36:49.954Z,12.03
2022-10-07T19:39:21.367Z,11.90
2022-10-07T19:41:51.045Z,11.97
2022-10-07T19:44:19.644Z,11.98
2022-10-07T19:46:51.322Z,11.96
2022-10-07T19:49:19.638Z,11.87
2022-10-07T19:51:47.439Z,11.81
2022-10-07T19:54:15.372Z,11.80
2022-10-07T19:56:45.197Z,11.78
2022-10-07T19:59:15.122Z,11.80
2022-10-07T20:01:44.320Z,11.80
2022-10-07T20:04:14.096Z,11.80
2022-10-07T20:06:42.393Z,11.79
2022-10-07T20:09:12.876Z,11.72
2022-10-07T20:11:40.724Z,11.75
2022-10-07T20:14:10.287Z,11.74
2022-10-07T20:16:39.477Z,11.74
2022-10-07T20:19:09.448Z,11.74
2022-10-07T20:21:39.266Z,11.66
2022-10-07T20:24:08.364Z,11.55
2022-10-07T20:26:38.363Z,11.42
2022-10-07T20:29:10.015Z,11.23
2022-10-07T20:31:41.585Z,11.22
2022-10-07T20:34:14.398Z,11.26
2022-10-07T20:36:42.275Z,11.32
2022-10-07T20:39:33.455Z,11.24
2022-10-07T20:42:20.072Z,11.20
2022-10-07T20:44:49.194Z,11.12
2022-10-07T20:47:19.696Z,11.03
2022-10-07T20:49:48.764Z,10.99
2022-10-07T20:52:19.655Z,10.98
2022-10-07T20:54:48.311Z,11.06
2022-10-07T20:57:18.377Z,11.13
2022-10-07T20:59:46.417Z,11.13
2022-10-07T21:02:15.538Z,11.14
2022-10-07T21:04:46.945Z,11.17
2022-10-07T21:07:16.184Z,11.17
2022-10-07T21:09:44.399Z,11.18
2022-10-07T21:12:15.566Z,11.14
2022-10-07T21:14:44.307Z,11.06
2022-10-07T21:17:13.072Z,11.01
2022-10-07T21:19:41.652Z,10.96
2022-10-07T21:22:10.954Z,11.03
2022-10-07T21:24:38.940Z,10.97
2022-10-07T21:27:08.571Z,10.93
2022-10-07T21:29:40.803Z,10.97
2022-10-07T21:32:09.381Z,10.99
2022-10-07T21:34:37.373Z,10.97
2022-10-07T21:37:05.585Z,10.97
2022-10-07T21:39:35.338Z,11.79
2022-10-07T21:42:03.502Z,12.72
2022-10-07T21:44:33.316Z,12.66
2022-10-07T21:47:01.335Z,12.96
2022-10-07T21:49:29.239Z,12.66
2022-10-07T21:51:57.176Z,12.77
2022-10-07T21:54:26.108Z,12.47
2022-10-07T21:56:55.337Z,12.49
2022-10-07T21:59:23.378Z,12.33
2022-10-07T22:01:51.362Z,13.01
2022-10-07T22:04:20.147Z,13.14
2022-10-07T22:07:05.475Z,12.76
2022-10-07T22:09:33.437Z,12.71
2022-10-07T22:12:02.745Z,11.89
2022-10-07T22:14:30.575Z,11.48
2022-10-07T22:16:58.399Z,11.05
2022-10-07T22:19:26.374Z,10.79
2022-10-07T22:21:54.181Z,10.69
2022-10-07T22:24:23.560Z,10.64
2022-10-07T22:26:52.015Z,10.54
2022-10-07T22:29:22.902Z,10.48
2022-10-07T22:31:51.161Z,10.41
2022-10-07T22:34:36.739Z,10.40
2022-10-07T22:37:05.392Z,10.92
2022-10-07T22:39:33.379Z,11.60
2022-10-07T22:42:03.639Z,12.04
2022-10-07T22:44:32.870Z,12.43
2022-10-07T22:47:01.455Z,12.53
2022-10-07T22:49:30.465Z,12.59
2022-10-07T22:51:59.773Z,12.71
2022-10-07T22:54:28.424Z,12.66
2022-10-07T22:56:56.476Z,12.58
2022-10-07T22:59:24.257Z,12.61
2022-10-07T23:01:53.540Z,12.60
2022-10-07T23:04:21.712Z,12.52
2022-10-07T23:06:49.710Z,12.34
2022-10-07T23:09:17.561Z,12.34
2022-10-07T23:11:45.680Z,12.24
2022-10-07T23:14:13.569Z,12.32
2022-10-07T23:16:41.911Z,12.29
2022-10-07T23:19:11.501Z,12.44
2022-10-07T23:21:39.569Z,12.24
2022-10-07T23:24:08.448Z,12.32
2022-10-07T23:26:37.552Z,12.21
2022-10-07T23:29:07.495Z,12.24
2022-10-07T23:31:35.648Z,12.20
2022-10-07T23:34:03.978Z,12.22
2022-10-07T23:36:34.857Z,12.18
2022-10-07T23:39:03.242Z,12.17
2022-10-07T23:41:32.457Z,12.17
2022-10-07T23:44:03.038Z,12.25
2022-10-07T23:46:33.898Z,12.35
2022-10-07T23:49:02.759Z,12.55
2022-10-07T23:51:32.439Z,12.50
2022-10-07T23:54:03.442Z,12.43
2022-10-07T23:56:32.181Z,12.47
2022-10-07T23:59:00.580Z,12.39
